sensor_id;sensor_type;location;lat;lon;timestamp;temperature;humidity
35491;DHT22;21605;52.068;20.806;2022-10-10T00:01:08;4.50;99.90
35491;DHT22;21605;52.068;20.806;2022-10-10T00:03:34;4.40;99.90
35491;DHT22;21605;52.068;20.806;2022-10-10T00:05:59;4.40;99.90
35491;DHT22;21605;52.068;20.806;2022-10-10T00:08:25;4.40;99.90
35491;DHT22;21605;52.068;20.806;2022-10-10T00:10:50;4.10;99.90
35491;DHT22;21605;52.068;20.806;2022-10-10T00:13:16;4.50;99.90
35491;DHT22;21605;52.068;20.806;2022-10-10T00:15:42;4.30;99.90
35491;DHT22;21605;52.068;20.806;2022-10-10T00:18:07;4.30;99.90
35491;DHT22;21605;52.068;20.806;2022-10-10T00:20:33;4.20;99.90
35491;DHT22;21605;52.068;20.806;2022-10-10T00:22:58;4.30;99.90
35491;DHT22;21605;52.068;20.806;2022-10-10T00:25:24;4.20;99.90
35491;DHT22;21605;52.068;20.806;2022-10-10T00:27:49;4.20;99.90
35491;DHT22;21605;52.068;20.806;2022-10-10T00:30:15;4.20;99.90
35491;DHT22;21605;52.068;20.806;2022-10-10T00:32:40;4.20;99.90
35491;DHT22;21605;52.068;20.806;2022-10-10T00:35:06;4.10;99.90
35491;DHT22;21605;52.068;20.806;2022-10-10T00:37:31;4.10;99.90
35491;DHT22;21605;52.068;20.806;2022-10-10T00:39:57;4.10;99.90
35491;DHT22;21605;52.068;20.806;2022-10-10T00:42:22;4.10;99.90
35491;DHT22;21605;52.068;20.806;2022-10-10T00:45:19;4.10;99.90
35491;DHT22;21605;52.068;20.806;2022-10-10T00:47:33;4.00;99.90
35491;DHT22;21605;52.068;20.806;2022-10-10T00:49:58;4.00;99.90
35491;DHT22;21605;52.068;20.806;2022-10-10T00:52:24;4.00;99.90
35491;DHT22;21605;52.068;20.806;2022-10-10T00:54:50;3.90;99.90
35491;DHT22;21605;52.068;20.806;2022-10-10T00:57:15;4.00;99.90
35491;DHT22;21605;52.068;20.806;2022-10-10T00:59:41;4.00;99.90
35491;DHT22;21605;52.068;20.806;2022-10-10T01:02:07;3.90;99.90
35491;DHT22;21605;52.068;20.806;2022-10-10T01:06:59;3.90;99.90
35491;DHT22;21605;52.068;20.806;2022-10-10T01:09:26;3.90;99.90
35491;DHT22;21605;52.068;20.806;2022-10-10T01:11:58;3.90;99.90
35491;DHT22;21605;52.068;20.806;2022-10-10T01:14:44;3.90;99.90
35491;DHT22;21605;52.068;20.806;2022-10-10T01:22:44;3.80;99.90
35491;DHT22;21605;52.068;20.806;2022-10-10T01:30:13;3.80;99.90
35491;DHT22;21605;52.068;20.806;2022-10-10T01:37:42;3.70;99.90
35491;DHT22;21605;52.068;20.806;2022-10-10T01:40:15;3.70;99.90
35491;DHT22;21605;52.068;20.806;2022-10-10T01:45:10;3.70;99.90
35491;DHT22;21605;52.068;20.806;2022-10-10T01:47:35;3.70;99.90
35491;DHT22;21605;52.068;20.806;2022-10-10T01:50:02;3.70;99.90
35491;DHT22;21605;52.068;20.806;2022-10-10T01:57:49;3.60;99.90
35491;DHT22;21605;52.068;20.806;2022-10-10T02:00:17;3.60;99.90
35491;DHT22;21605;52.068;20.806;2022-10-10T02:03:04;3.60;99.90
35491;DHT22;21605;52.068;20.806;2022-10-10T02:10:25;3.60;99.90
35491;DHT22;21605;52.068;20.806;2022-10-10T02:12:52;3.50;99.90
35491;DHT22;21605;52.068;20.806;2022-10-10T02:15:20;3.50;99.90
35491;DHT22;21605;52.068;20.806;2022-10-10T02:17:47;3.50;99.90
35491;DHT22;21605;52.068;20.806;2022-10-10T02:20:13;3.50;99.90
35491;DHT22;21605;52.068;20.806;2022-10-10T02:22:41;3.50;99.90
35491;DHT22;21605;52.068;20.806;2022-10-10T02:25:07;3.50;99.90
35491;DHT22;21605;52.068;20.806;2022-10-10T02:30:02;3.40;99.90
35491;DHT22;21605;52.068;20.806;2022-10-10T02:32:30;3.40;99.90
35491;DHT22;21605;52.068;20.806;2022-10-10T02:34:57;3.40;99.90
35491;DHT22;21605;52.068;20.806;2022-10-10T02:37:23;3.40;99.90
35491;DHT22;21605;52.068;20.806;2022-10-10T02:39:52;3.40;99.90
35491;DHT22;21605;52.068;20.806;2022-10-10T02:42:20;3.40;99.90
35491;DHT22;21605;52.068;20.806;2022-10-10T02:44:46;3.30;99.90
35491;DHT22;21605;52.068;20.806;2022-10-10T02:47:12;4.50;99.90
35491;DHT22;21605;52.068;20.806;2022-10-10T02:49:38;3.40;99.90
35491;DHT22;21605;52.068;20.806;2022-10-10T02:52:04;3.30;99.90
35491;DHT22;21605;52.068;20.806;2022-10-10T02:54:29;3.30;99.90
35491;DHT22;21605;52.068;20.806;2022-10-10T02:56:55;3.30;99.90
35491;DHT22;21605;52.068;20.806;2022-10-10T02:59:20;3.30;99.90
35491;DHT22;21605;52.068;20.806;2022-10-10T03:01:46;3.30;99.90
35491;DHT22;21605;52.068;20.806;2022-10-10T03:04:11;3.30;99.90
35491;DHT22;21605;52.068;20.806;2022-10-10T03:06:37;3.30;99.90
35491;DHT22;21605;52.068;20.806;2022-10-10T03:09:03;3.30;99.90
35491;DHT22;21605;52.068;20.806;2022-10-10T03:11:29;3.30;99.90
35491;DHT22;21605;52.068;20.806;2022-10-10T03:13:54;3.30;99.90
35491;DHT22;21605;52.068;20.806;2022-10-10T03:16:20;3.30;99.90
35491;DHT22;21605;52.068;20.806;2022-10-10T03:18:45;3.30;99.90
35491;DHT22;21605;52.068;20.806;2022-10-10T03:21:11;3.30;99.90
35491;DHT22;21605;52.068;20.806;2022-10-10T03:23:36;3.30;99.90
35491;DHT22;21605;52.068;20.806;2022-10-10T03:26:02;3.30;99.90
35491;DHT22;21605;52.068;20.806;2022-10-10T03:28:28;3.30;99.90
35491;DHT22;21605;52.068;20.806;2022-10-10T03:30:53;3.30;99.90
35491;DHT22;21605;52.068;20.806;2022-10-10T03:33:19;3.30;99.90
35491;DHT22;21605;52.068;20.806;2022-10-10T03:35:44;3.30;99.90
35491;DHT22;21605;52.068;20.806;2022-10-10T03:38:11;3.30;99.90
35491;DHT22;21605;52.068;20.806;2022-10-10T03:40:37;3.30;99.90
35491;DHT22;21605;52.068;20.806;2022-10-10T03:43:03;3.30;99.90
35491;DHT22;21605;52.068;20.806;2022-10-10T03:45:29;3.30;99.90
35491;DHT22;21605;52.068;20.806;2022-10-10T03:47:54;3.30;99.90
35491;DHT22;21605;52.068;20.806;2022-10-10T03:50:20;3.30;99.90
35491;DHT22;21605;52.068;20.806;2022-10-10T03:52:45;3.30;99.90
35491;DHT22;21605;52.068;20.806;2022-10-10T03:55:11;3.30;99.90
35491;DHT22;21605;52.068;20.806;2022-10-10T03:57:36;3.40;99.90
35491;DHT22;21605;52.068;20.806;2022-10-10T04:00:02;3.40;99.90
35491;DHT22;21605;52.068;20.806;2022-10-10T04:02:27;3.40;99.90
35491;DHT22;21605;52.068;20.806;2022-10-10T04:04:53;3.40;99.90
35491;DHT22;21605;52.068;20.806;2022-10-10T04:07:18;3.50;99.90
35491;DHT22;21605;52.068;20.806;2022-10-10T04:09:44;3.40;99.90
35491;DHT22;21605;52.068;20.806;2022-10-10T04:12:10;3.40;99.90
35491;DHT22;21605;52.068;20.806;2022-10-10T04:14:35;3.50;99.90
35491;DHT22;21605;52.068;20.806;2022-10-10T04:17:01;3.50;99.90
35491;DHT22;21605;52.068;20.806;2022-10-10T04:19:26;3.50;99.90
35491;DHT22;21605;52.068;20.806;2022-10-10T04:21:52;3.50;99.90
35491;DHT22;21605;52.068;20.806;2022-10-10T04:24:17;3.50;99.90
35491;DHT22;21605;52.068;20.806;2022-10-10T04:26:43;3.50;99.90
35491;DHT22;21605;52.068;20.806;2022-10-10T04:29:08;3.50;99.90
35491;DHT22;21605;52.068;20.806;2022-10-10T04:31:34;3.50;99.90
35491;DHT22;21605;52.068;20.806;2022-10-10T04:33:59;3.50;99.90
35491;DHT22;21605;52.068;20.806;2022-10-10T04:36:25;3.50;99.90
35491;DHT22;21605;52.068;20.806;2022-10-10T04:38:50;3.50;99.90
35491;DHT22;21605;52.068;20.806;2022-10-10T04:41:16;3.50;99.90
35491;DHT22;21605;52.068;20.806;2022-10-10T04:43:43;3.50;99.90
35491;DHT22;21605;52.068;20.806;2022-10-10T04:46:08;3.40;99.90
35491;DHT22;21605;52.068;20.806;2022-10-10T04:48:34;3.40;99.90
35491;DHT22;21605;52.068;20.806;2022-10-10T04:50:59;3.50;99.90
35491;DHT22;21605;52.068;20.806;2022-10-10T04:53:25;3.50;99.90
35491;DHT22;21605;52.068;20.806;2022-10-10T04:55:51;3.40;99.90
35491;DHT22;21605;52.068;20.806;2022-10-10T04:58:16;3.50;99.90
35491;DHT22;21605;52.068;20.806;2022-10-10T05:00:42;3.50;99.90
35491;DHT22;21605;52.068;20.806;2022-10-10T05:03:07;3.40;99.90
35491;DHT22;21605;52.068;20.806;2022-10-10T05:05:35;3.40;99.90
35491;DHT22;21605;52.068;20.806;2022-10-10T05:08:01;3.50;99.90
35491;DHT22;21605;52.068;20.806;2022-10-10T05:10:26;3.50;99.90
35491;DHT22;21605;52.068;20.806;2022-10-10T05:12:52;3.50;99.90
35491;DHT22;21605;52.068;20.806;2022-10-10T05:15:17;3.50;99.90
35491;DHT22;21605;52.068;20.806;2022-10-10T05:17:43;3.50;99.90
35491;DHT22;21605;52.068;20.806;2022-10-10T05:20:09;3.50;99.90
35491;DHT22;21605;52.068;20.806;2022-10-10T05:22:34;3.50;99.90
35491;DHT22;21605;52.068;20.806;2022-10-10T05:25:00;3.60;99.90
35491;DHT22;21605;52.068;20.806;2022-10-10T05:27:26;3.60;99.90
35491;DHT22;21605;52.068;20.806;2022-10-10T05:29:51;3.60;99.90
35491;DHT22;21605;52.068;20.806;2022-10-10T05:32:17;3.60;99.90
35491;DHT22;21605;52.068;20.806;2022-10-10T05:34:43;3.60;99.90
35491;DHT22;21605;52.068;20.806;2022-10-10T05:37:08;3.60;99.90
35491;DHT22;21605;52.068;20.806;2022-10-10T05:39:33;3.70;99.90
35491;DHT22;21605;52.068;20.806;2022-10-10T05:41:59;3.70;99.90
35491;DHT22;21605;52.068;20.806;2022-10-10T05:44:25;3.70;99.90
35491;DHT22;21605;52.068;20.806;2022-10-10T05:46:50;3.80;99.90
35491;DHT22;21605;52.068;20.806;2022-10-10T05:49:16;3.80;99.90
35491;DHT22;21605;52.068;20.806;2022-10-10T05:51:41;3.90;99.90
35491;DHT22;21605;52.068;20.806;2022-10-10T05:54:07;3.90;99.90
35491;DHT22;21605;52.068;20.806;2022-10-10T05:56:33;4.00;99.90
35491;DHT22;21605;52.068;20.806;2022-10-10T05:58:58;4.00;99.90
35491;DHT22;21605;52.068;20.806;2022-10-10T06:01:24;4.10;99.90
35491;DHT22;21605;52.068;20.806;2022-10-10T06:03:49;4.10;99.90
35491;DHT22;21605;52.068;20.806;2022-10-10T06:06:20;4.20;99.90
35491;DHT22;21605;52.068;20.806;2022-10-10T06:08:46;4.20;99.90
35491;DHT22;21605;52.068;20.806;2022-10-10T06:11:11;4.30;99.90
35491;DHT22;21605;52.068;20.806;2022-10-10T06:13:37;4.30;99.90
35491;DHT22;21605;52.068;20.806;2022-10-10T06:16:02;4.40;99.90
35491;DHT22;21605;52.068;20.806;2022-10-10T06:18:28;4.40;99.90
35491;DHT22;21605;52.068;20.806;2022-10-10T06:20:53;4.50;99.90
35491;DHT22;21605;52.068;20.806;2022-10-10T06:23:19;4.50;99.90
35491;DHT22;21605;52.068;20.806;2022-10-10T06:25:45;4.60;99.90
35491;DHT22;21605;52.068;20.806;2022-10-10T06:28:10;4.60;99.90
35491;DHT22;21605;52.068;20.806;2022-10-10T06:30:43;4.70;99.90
35491;DHT22;21605;52.068;20.806;2022-10-10T06:33:08;4.80;99.90
35491;DHT22;21605;52.068;20.806;2022-10-10T06:35:39;4.90;99.90
35491;DHT22;21605;52.068;20.806;2022-10-10T06:38:05;5.20;99.90
35491;DHT22;21605;52.068;20.806;2022-10-10T06:40:31;5.40;99.90
35491;DHT22;21605;52.068;20.806;2022-10-10T06:42:56;5.50;99.90
35491;DHT22;21605;52.068;20.806;2022-10-10T06:45:22;5.70;99.90
35491;DHT22;21605;52.068;20.806;2022-10-10T06:47:49;6.00;99.90
35491;DHT22;21605;52.068;20.806;2022-10-10T06:50:14;6.10;99.90
35491;DHT22;21605;52.068;20.806;2022-10-10T06:52:40;6.20;99.90
35491;DHT22;21605;52.068;20.806;2022-10-10T06:55:05;6.30;99.90
35491;DHT22;21605;52.068;20.806;2022-10-10T06:57:31;6.40;99.90
35491;DHT22;21605;52.068;20.806;2022-10-10T06:59:56;6.40;99.90
35491;DHT22;21605;52.068;20.806;2022-10-10T07:02:22;6.40;99.90
35491;DHT22;21605;52.068;20.806;2022-10-10T07:04:49;6.50;99.90
35491;DHT22;21605;52.068;20.806;2022-10-10T07:07:14;6.60;99.90
35491;DHT22;21605;52.068;20.806;2022-10-10T07:09:40;6.60;99.90
35491;DHT22;21605;52.068;20.806;2022-10-10T07:12:06;6.60;99.90
35491;DHT22;21605;52.068;20.806;2022-10-10T07:14:31;6.70;99.90
35491;DHT22;21605;52.068;20.806;2022-10-10T07:16:57;6.80;99.90
35491;DHT22;21605;52.068;20.806;2022-10-10T07:19:22;6.80;99.90
35491;DHT22;21605;52.068;20.806;2022-10-10T07:21:49;6.90;99.90
35491;DHT22;21605;52.068;20.806;2022-10-10T07:24:15;7.00;99.90
35491;DHT22;21605;52.068;20.806;2022-10-10T07:26:40;7.00;99.90
35491;DHT22;21605;52.068;20.806;2022-10-10T07:29:06;7.10;99.90
35491;DHT22;21605;52.068;20.806;2022-10-10T07:31:31;7.20;99.90
35491;DHT22;21605;52.068;20.806;2022-10-10T07:33:57;7.30;99.90
35491;DHT22;21605;52.068;20.806;2022-10-10T07:36:22;7.40;99.90
35491;DHT22;21605;52.068;20.806;2022-10-10T07:38:49;7.50;99.90
35491;DHT22;21605;52.068;20.806;2022-10-10T07:41:16;7.50;99.90
35491;DHT22;21605;52.068;20.806;2022-10-10T07:43:41;7.60;99.90
35491;DHT22;21605;52.068;20.806;2022-10-10T07:46:13;7.70;99.90
35491;DHT22;21605;52.068;20.806;2022-10-10T07:48:39;7.80;99.90
35491;DHT22;21605;52.068;20.806;2022-10-10T07:51:05;7.80;99.90
35491;DHT22;21605;52.068;20.806;2022-10-10T07:53:31;7.90;99.90
35491;DHT22;21605;52.068;20.806;2022-10-10T07:55:56;8.00;99.90
35491;DHT22;21605;52.068;20.806;2022-10-10T07:58:22;8.10;99.90
35491;DHT22;21605;52.068;20.806;2022-10-10T08:00:47;8.10;99.90
35491;DHT22;21605;52.068;20.806;2022-10-10T08:03:13;8.30;99.90
35491;DHT22;21605;52.068;20.806;2022-10-10T08:05:39;8.30;99.90
35491;DHT22;21605;52.068;20.806;2022-10-10T08:08:05;8.50;99.90
35491;DHT22;21605;52.068;20.806;2022-10-10T08:10:31;8.50;99.90
35491;DHT22;21605;52.068;20.806;2022-10-10T08:12:56;8.70;99.90
35491;DHT22;21605;52.068;20.806;2022-10-10T08:15:22;8.80;99.90
35491;DHT22;21605;52.068;20.806;2022-10-10T08:17:47;8.90;99.90
35491;DHT22;21605;52.068;20.806;2022-10-10T08:20:13;9.00;99.90
35491;DHT22;21605;52.068;20.806;2022-10-10T08:22:38;9.60;99.90
35491;DHT22;21605;52.068;20.806;2022-10-10T08:25:04;10.60;99.90
35491;DHT22;21605;52.068;20.806;2022-10-10T08:27:29;11.80;99.90
35491;DHT22;21605;52.068;20.806;2022-10-10T08:29:55;13.10;99.90
35491;DHT22;21605;52.068;20.806;2022-10-10T08:32:20;14.30;99.90
35491;DHT22;21605;52.068;20.806;2022-10-10T08:34:46;15.50;99.90
35491;DHT22;21605;52.068;20.806;2022-10-10T08:37:11;16.70;99.90
35491;DHT22;21605;52.068;20.806;2022-10-10T08:39:37;17.60;98.00
35491;DHT22;21605;52.068;20.806;2022-10-10T08:42:02;18.50;96.50
35491;DHT22;21605;52.068;20.806;2022-10-10T08:49:41;20.80;96.50
35491;DHT22;21605;52.068;20.806;2022-10-10T08:52:13;21.00;92.90
35491;DHT22;21605;52.068;20.806;2022-10-10T08:54:39;21.10;90.60
35491;DHT22;21605;52.068;20.806;2022-10-10T08:57:21;21.20;91.20
35491;DHT22;21605;52.068;20.806;2022-10-10T08:59:47;20.80;89.40
35491;DHT22;21605;52.068;20.806;2022-10-10T09:02:31;20.60;84.40
35491;DHT22;21605;52.068;20.806;2022-10-10T09:04:58;20.50;92.60
35491;DHT22;21605;52.068;20.806;2022-10-10T09:10:06;19.90;90.40
35491;DHT22;21605;52.068;20.806;2022-10-10T09:22:38;18.30;87.60
35491;DHT22;21605;52.068;20.806;2022-10-10T09:25:15;18.00;88.10
35491;DHT22;21605;52.068;20.806;2022-10-10T09:27:51;17.80;89.50
35491;DHT22;21605;52.068;20.806;2022-10-10T09:30:18;17.80;90.50
35491;DHT22;21605;52.068;20.806;2022-10-10T09:32:47;17.80;90.60
35491;DHT22;21605;52.068;20.806;2022-10-10T09:35:21;18.10;91.00
35491;DHT22;21605;52.068;20.806;2022-10-10T09:37:49;18.50;87.90
35491;DHT22;21605;52.068;20.806;2022-10-10T09:42:40;20.00;93.70
35491;DHT22;21605;52.068;20.806;2022-10-10T09:45:29;20.50;90.40
35491;DHT22;21605;52.068;20.806;2022-10-10T09:47:53;21.00;88.60
35491;DHT22;21605;52.068;20.806;2022-10-10T09:50:19;21.50;91.40
35491;DHT22;21605;52.068;20.806;2022-10-10T09:52:46;21.80;90.80
35491;DHT22;21605;52.068;20.806;2022-10-10T09:57:43;21.80;79.10
35491;DHT22;21605;52.068;20.806;2022-10-10T10:02:47;22.20;90.00
35491;DHT22;21605;52.068;20.806;2022-10-10T10:05:23;22.10;77.30
35491;DHT22;21605;52.068;20.806;2022-10-10T10:07:49;22.40;83.30
35491;DHT22;21605;52.068;20.806;2022-10-10T10:10:17;22.40;80.20
35491;DHT22;21605;52.068;20.806;2022-10-10T10:12:43;22.80;79.60
35491;DHT22;21605;52.068;20.806;2022-10-10T10:15:42;22.80;76.70
35491;DHT22;21605;52.068;20.806;2022-10-10T10:18:08;22.90;75.00
35491;DHT22;21605;52.068;20.806;2022-10-10T10:20:34;23.30;76.70
35491;DHT22;21605;52.068;20.806;2022-10-10T10:23:00;23.90;76.00
35491;DHT22;21605;52.068;20.806;2022-10-10T10:25:27;24.30;73.10
35491;DHT22;21605;52.068;20.806;2022-10-10T10:28:10;24.50;75.40
35491;DHT22;21605;52.068;20.806;2022-10-10T10:30:38;24.90;72.60
35491;DHT22;21605;52.068;20.806;2022-10-10T10:33:16;25.10;67.80
35491;DHT22;21605;52.068;20.806;2022-10-10T10:35:48;25.60;69.80
35491;DHT22;21605;52.068;20.806;2022-10-10T10:38:22;25.90;69.60
35491;DHT22;21605;52.068;20.806;2022-10-10T10:46:15;26.80;73.60
35491;DHT22;21605;52.068;20.806;2022-10-10T10:48:39;26.50;69.40
35491;DHT22;21605;52.068;20.806;2022-10-10T10:51:11;26.70;64.30
35491;DHT22;21605;52.068;20.806;2022-10-10T10:53:40;26.70;74.80
35491;DHT22;21605;52.068;20.806;2022-10-10T10:56:15;26.80;70.50
35491;DHT22;21605;52.068;20.806;2022-10-10T11:01:20;26.10;65.50
35491;DHT22;21605;52.068;20.806;2022-10-10T11:06:40;25.90;61.40
35491;DHT22;21605;52.068;20.806;2022-10-10T11:09:25;25.70;66.20
35491;DHT22;21605;52.068;20.806;2022-10-10T11:14:33;24.80;62.80
35491;DHT22;21605;52.068;20.806;2022-10-10T11:17:08;24.20;63.30
35491;DHT22;21605;52.068;20.806;2022-10-10T11:19:40;24.10;64.40
35491;DHT22;21605;52.068;20.806;2022-10-10T11:22:08;23.90;70.30
35491;DHT22;21605;52.068;20.806;2022-10-10T11:24:51;23.80;70.20
35491;DHT22;21605;52.068;20.806;2022-10-10T11:29:51;23.50;71.30
35491;DHT22;21605;52.068;20.806;2022-10-10T11:32:20;23.30;68.90
35491;DHT22;21605;52.068;20.806;2022-10-10T11:37:15;22.30;65.40
35491;DHT22;21605;52.068;20.806;2022-10-10T11:39:49;21.90;68.60
35491;DHT22;21605;52.068;20.806;2022-10-10T11:44:46;20.90;68.60
35491;DHT22;21605;52.068;20.806;2022-10-10T11:47:30;20.80;70.00
35491;DHT22;21605;52.068;20.806;2022-10-10T11:55:46;19.90;69.00
35491;DHT22;21605;52.068;20.806;2022-10-10T11:58:22;19.70;70.90
35491;DHT22;21605;52.068;20.806;2022-10-10T12:00:50;19.50;71.60
35491;DHT22;21605;52.068;20.806;2022-10-10T12:03:17;18.60;70.60
35491;DHT22;21605;52.068;20.806;2022-10-10T12:05:54;18.90;71.20
35491;DHT22;21605;52.068;20.806;2022-10-10T12:08:31;18.80;71.70
35491;DHT22;21605;52.068;20.806;2022-10-10T12:15:52;18.50;72.00
35491;DHT22;21605;52.068;20.806;2022-10-10T12:18:25;18.20;73.20
35491;DHT22;21605;52.068;20.806;2022-10-10T12:24:03;17.90;74.50
35491;DHT22;21605;52.068;20.806;2022-10-10T12:27:08;17.80;75.40
35491;DHT22;21605;52.068;20.806;2022-10-10T12:42:29;17.10;75.30
35491;DHT22;21605;52.068;20.806;2022-10-10T12:44:54;17.00;76.10
35491;DHT22;21605;52.068;20.806;2022-10-10T12:47:25;17.00;76.30
35491;DHT22;21605;52.068;20.806;2022-10-10T12:50:03;16.90;76.20
35491;DHT22;21605;52.068;20.806;2022-10-10T12:52:30;16.80;76.50
35491;DHT22;21605;52.068;20.806;2022-10-10T12:55:00;16.80;77.10
35491;DHT22;21605;52.068;20.806;2022-10-10T12:57:30;16.80;77.40
35491;DHT22;21605;52.068;20.806;2022-10-10T13:00:18;16.70;76.40
35491;DHT22;21605;52.068;20.806;2022-10-10T13:02:44;16.70;77.80
35491;DHT22;21605;52.068;20.806;2022-10-10T13:05:14;16.60;76.70
35491;DHT22;21605;52.068;20.806;2022-10-10T13:07:41;16.70;79.20
35491;DHT22;21605;52.068;20.806;2022-10-10T13:10:18;16.60;78.10
35491;DHT22;21605;52.068;20.806;2022-10-10T13:12:44;16.60;78.80
35491;DHT22;21605;52.068;20.806;2022-10-10T13:15:16;16.50;79.20
35491;DHT22;21605;52.068;20.806;2022-10-10T13:17:44;16.40;76.50
35491;DHT22;21605;52.068;20.806;2022-10-10T13:20:24;16.40;76.40
35491;DHT22;21605;52.068;20.806;2022-10-10T13:22:50;16.40;78.00
35491;DHT22;21605;52.068;20.806;2022-10-10T13:25:16;16.40;78.50
35491;DHT22;21605;52.068;20.806;2022-10-10T13:27:42;16.30;78.30
35491;DHT22;21605;52.068;20.806;2022-10-10T13:30:14;16.30;77.10
35491;DHT22;21605;52.068;20.806;2022-10-10T13:32:42;16.20;77.70
35491;DHT22;21605;52.068;20.806;2022-10-10T13:35:14;16.20;77.60
35491;DHT22;21605;52.068;20.806;2022-10-10T13:37:41;16.20;78.30
35491;DHT22;21605;52.068;20.806;2022-10-10T13:40:16;16.20;79.00
35491;DHT22;21605;52.068;20.806;2022-10-10T13:42:42;16.20;79.30
35491;DHT22;21605;52.068;20.806;2022-10-10T13:45:54;16.10;79.50
35491;DHT22;21605;52.068;20.806;2022-10-10T13:50:48;16.10;79.00
35491;DHT22;21605;52.068;20.806;2022-10-10T13:53:30;16.10;78.40
35491;DHT22;21605;52.068;20.806;2022-10-10T13:58:21;16.00;79.30
35491;DHT22;21605;52.068;20.806;2022-10-10T14:00:53;16.00;78.90
35491;DHT22;21605;52.068;20.806;2022-10-10T14:03:18;16.00;78.00
35491;DHT22;21605;52.068;20.806;2022-10-10T14:05:44;16.00;78.80
35491;DHT22;21605;52.068;20.806;2022-10-10T14:08:14;15.90;77.90
35491;DHT22;21605;52.068;20.806;2022-10-10T14:10:40;15.90;78.10
35491;DHT22;21605;52.068;20.806;2022-10-10T14:13:12;15.90;77.90
35491;DHT22;21605;52.068;20.806;2022-10-10T14:18:16;15.80;78.80
35491;DHT22;21605;52.068;20.806;2022-10-10T14:20:43;15.70;78.10
35491;DHT22;21605;52.068;20.806;2022-10-10T14:23:08;15.70;78.40
35491;DHT22;21605;52.068;20.806;2022-10-10T14:25:36;15.70;78.90
35491;DHT22;21605;52.068;20.806;2022-10-10T14:28:02;15.70;78.80
35491;DHT22;21605;52.068;20.806;2022-10-10T14:30:27;15.60;78.10
35491;DHT22;21605;52.068;20.806;2022-10-10T14:32:52;15.50;78.00
35491;DHT22;21605;52.068;20.806;2022-10-10T14:35:18;15.50;78.20
35491;DHT22;21605;52.068;20.806;2022-10-10T14:37:43;15.50;78.50
35491;DHT22;21605;52.068;20.806;2022-10-10T14:40:27;15.40;78.10
35491;DHT22;21605;52.068;20.806;2022-10-10T14:42:54;15.40;79.10
35491;DHT22;21605;52.068;20.806;2022-10-10T14:45:20;15.40;79.40
35491;DHT22;21605;52.068;20.806;2022-10-10T14:47:45;15.30;79.10
35491;DHT22;21605;52.068;20.806;2022-10-10T14:50:18;15.30;79.30
35491;DHT22;21605;52.068;20.806;2022-10-10T14:52:44;15.20;79.60
35491;DHT22;21605;52.068;20.806;2022-10-10T14:55:10;15.20;79.80
35491;DHT22;21605;52.068;20.806;2022-10-10T14:57:36;15.10;80.00
35491;DHT22;21605;52.068;20.806;2022-10-10T15:00:03;15.00;79.70
35491;DHT22;21605;52.068;20.806;2022-10-10T15:02:28;15.00;80.00
35491;DHT22;21605;52.068;20.806;2022-10-10T15:04:54;14.90;80.60
35491;DHT22;21605;52.068;20.806;2022-10-10T15:07:19;14.90;80.40
35491;DHT22;21605;52.068;20.806;2022-10-10T15:09:46;14.80;80.70
35491;DHT22;21605;52.068;20.806;2022-10-10T15:12:11;14.70;80.70
35491;DHT22;21605;52.068;20.806;2022-10-10T15:14:37;14.60;81.00
35491;DHT22;21605;52.068;20.806;2022-10-10T15:17:02;14.60;81.00
35491;DHT22;21605;52.068;20.806;2022-10-10T15:19:28;14.50;80.90
35491;DHT22;21605;52.068;20.806;2022-10-10T15:21:53;13.60;80.70
35491;DHT22;21605;52.068;20.806;2022-10-10T15:24:19;14.30;81.20
35491;DHT22;21605;52.068;20.806;2022-10-10T15:26:44;14.30;81.50
35491;DHT22;21605;52.068;20.806;2022-10-10T15:29:10;14.20;81.50
35491;DHT22;21605;52.068;20.806;2022-10-10T15:31:35;14.10;81.70
35491;DHT22;21605;52.068;20.806;2022-10-10T15:34:01;14.00;81.80
35491;DHT22;21605;52.068;20.806;2022-10-10T15:36:27;13.90;81.90
35491;DHT22;21605;52.068;20.806;2022-10-10T15:38:53;13.90;82.00
35491;DHT22;21605;52.068;20.806;2022-10-10T15:41:19;13.80;82.20
35491;DHT22;21605;52.068;20.806;2022-10-10T15:43:49;13.70;82.50
35491;DHT22;21605;52.068;20.806;2022-10-10T15:46:19;14.00;82.70
35491;DHT22;21605;52.068;20.806;2022-10-10T15:48:45;13.50;82.40
35491;DHT22;21605;52.068;20.806;2022-10-10T15:51:11;13.40;82.30
35491;DHT22;21605;52.068;20.806;2022-10-10T15:53:36;13.30;82.70
35491;DHT22;21605;52.068;20.806;2022-10-10T15:56:09;13.30;83.10
35491;DHT22;21605;52.068;20.806;2022-10-10T15:58:35;13.20;83.30
35491;DHT22;21605;52.068;20.806;2022-10-10T16:01:07;13.10;83.80
35491;DHT22;21605;52.068;20.806;2022-10-10T16:03:32;13.00;83.60
35491;DHT22;21605;52.068;20.806;2022-10-10T16:05:58;12.90;83.50
35491;DHT22;21605;52.068;20.806;2022-10-10T16:08:25;12.90;83.60
35491;DHT22;21605;52.068;20.806;2022-10-10T16:10:51;12.70;83.70
35491;DHT22;21605;52.068;20.806;2022-10-10T16:13:16;12.60;84.00
35491;DHT22;21605;52.068;20.806;2022-10-10T16:15:42;12.60;84.10
35491;DHT22;21605;52.068;20.806;2022-10-10T16:18:07;12.50;84.30
35491;DHT22;21605;52.068;20.806;2022-10-10T16:20:33;12.40;84.60
35491;DHT22;21605;52.068;20.806;2022-10-10T16:22:58;12.30;84.80
35491;DHT22;21605;52.068;20.806;2022-10-10T16:25:24;12.20;84.90
35491;DHT22;21605;52.068;20.806;2022-10-10T16:27:49;12.10;85.30
35491;DHT22;21605;52.068;20.806;2022-10-10T16:30:16;12.00;85.00
35491;DHT22;21605;52.068;20.806;2022-10-10T16:32:41;12.00;85.00
35491;DHT22;21605;52.068;20.806;2022-10-10T16:35:07;11.90;85.20
35491;DHT22;21605;52.068;20.806;2022-10-10T16:37:32;11.80;85.40
35491;DHT22;21605;52.068;20.806;2022-10-10T16:39:58;11.70;85.40
35491;DHT22;21605;52.068;20.806;2022-10-10T16:42:23;11.70;85.50
35491;DHT22;21605;52.068;20.806;2022-10-10T16:44:49;11.60;85.70
35491;DHT22;21605;52.068;20.806;2022-10-10T16:47:14;11.50;85.80
35491;DHT22;21605;52.068;20.806;2022-10-10T16:49:40;11.50;86.10
35491;DHT22;21605;52.068;20.806;2022-10-10T16:52:05;11.40;86.40
35491;DHT22;21605;52.068;20.806;2022-10-10T16:54:31;11.40;86.60
35491;DHT22;21605;52.068;20.806;2022-10-10T16:56:56;11.30;86.40
35491;DHT22;21605;52.068;20.806;2022-10-10T16:59:22;11.20;86.50
35491;DHT22;21605;52.068;20.806;2022-10-10T17:01:47;11.20;86.80
35491;DHT22;21605;52.068;20.806;2022-10-10T17:04:13;11.10;87.00
35491;DHT22;21605;52.068;20.806;2022-10-10T17:06:38;11.10;87.00
35491;DHT22;21605;52.068;20.806;2022-10-10T17:09:05;11.00;87.20
35491;DHT22;21605;52.068;20.806;2022-10-10T17:11:31;10.90;87.20
35491;DHT22;21605;52.068;20.806;2022-10-10T17:13:57;10.90;87.20
35491;DHT22;21605;52.068;20.806;2022-10-10T17:16:23;10.90;87.40
35491;DHT22;21605;52.068;20.806;2022-10-10T17:18:49;10.80;87.40